Terminal Aerodrome Forecast
Issued by NWS Jackson, MS

Home | Current Version | Previous Version | Text Only | Print | Product List | Glossary On
Versions: 1 2 3 4 5 6 7 8 9 10 11 12 13 14 15 16
000
FTUS44 KJAN 181124
TAFMEI
TAF
KMEI 181124Z 1812/1912 09005KT P6SM SCT007 OVC014
     FM181500 11006KT P6SM VCSH SCT015 BKN025
     FM182100 14006KT 5SM TSRA SCT007 OVC020CB
     FM190400 17008KT P6SM -RA BKN008 OVC100=

USA.gov is the U.S. government's official web portal to all federal, state and local government web resources and services.